createdAt,value
2016-11-22T00:00:25.914Z,0
2016-11-22T00:01:40.411Z,0
2016-11-22T00:02:54.884Z,0
2016-11-22T00:04:08.970Z,0
2016-11-22T00:05:23.527Z,0
2016-11-22T00:06:38.065Z,0
2016-11-22T00:07:52.255Z,0
2016-11-22T00:09:06.411Z,0
2016-11-22T00:10:20.781Z,0
2016-11-22T00:11:35.945Z,0
2016-11-22T00:12:50.602Z,0
2016-11-22T00:14:04.816Z,0
2016-11-22T00:15:19.016Z,0
2016-11-22T00:16:33.675Z,0
2016-11-22T00:17:48.410Z,0
2016-11-22T00:19:03.055Z,0
2016-11-22T00:20:17.771Z,0
2016-11-22T00:21:31.820Z,0
2016-11-22T00:22:46.309Z,0
2016-11-22T00:24:00.427Z,0
2016-11-22T00:25:15.795Z,0
2016-11-22T00:26:30.160Z,0
2016-11-22T00:27:44.256Z,0
2016-11-22T00:28:59.095Z,0
2016-11-22T00:30:13.575Z,0
2016-11-22T00:31:28.920Z,0
2016-11-22T00:32:43.007Z,0
2016-11-22T00:33:57.142Z,0
2016-11-22T00:35:13.607Z,0
2016-11-22T00:36:28.662Z,0
2016-11-22T00:37:43.490Z,0
2016-11-22T00:38:57.584Z,0
2016-11-22T00:40:12.475Z,0
2016-11-22T00:41:26.792Z,0
2016-11-22T00:42:40.963Z,0
2016-11-22T00:43:56.095Z,0
2016-11-22T00:45:10.371Z,0
2016-11-22T00:46:25.087Z,0
2016-11-22T00:47:39.646Z,0
2016-11-22T00:48:53.766Z,0
2016-11-22T00:50:08.576Z,0
2016-11-22T00:51:22.712Z,0
2016-11-22T00:52:36.996Z,0
2016-11-22T00:53:51.487Z,0
2016-11-22T00:55:06.109Z,0
2016-11-22T00:56:20.475Z,0
2016-11-22T00:57:34.996Z,0
2016-11-22T00:58:49.076Z,0
2016-11-22T01:00:04.400Z,0
2016-11-22T01:01:18.601Z,0
2016-11-22T01:05:30.326Z,0
2016-11-22T01:06:44.421Z,0
2016-11-22T01:07:58.733Z,0
2016-11-22T01:09:12.852Z,0
2016-11-22T01:10:27.284Z,0
2016-11-22T01:11:41.788Z,0
2016-11-22T01:12:56.218Z,0
2016-11-22T01:14:10.679Z,0
2016-11-22T01:15:24.705Z,0
2016-11-22T01:16:38.866Z,0
2016-11-22T01:17:53.352Z,0
2016-11-22T01:19:08.041Z,0
2016-11-22T01:20:22.362Z,0
2016-11-22T01:21:36.458Z,0
2016-11-22T01:22:50.852Z,0
2016-11-22T01:24:05.248Z,0
2016-11-22T01:25:19.356Z,0
2016-11-22T01:26:33.813Z,0
2016-11-22T01:27:48.204Z,0
2016-11-22T01:29:02.624Z,0
2016-11-22T01:30:17.467Z,0
2016-11-22T01:31:31.925Z,0
2016-11-22T01:32:46.975Z,0
2016-11-22T01:34:01.120Z,0
2016-11-22T01:35:15.213Z,0
2016-11-22T01:36:29.442Z,0
2016-11-22T01:37:44.159Z,0
2016-11-22T01:38:58.769Z,0
2016-11-22T01:40:12.872Z,0
2016-11-22T01:41:27.355Z,0
2016-11-22T01:42:41.570Z,0
2016-11-22T01:43:55.957Z,0
2016-11-22T01:45:10.283Z,0
2016-11-22T01:46:24.800Z,0
2016-11-22T01:47:38.916Z,0
2016-11-22T01:48:53.094Z,0
2016-11-22T01:50:07.391Z,0
2016-11-22T01:51:21.815Z,0
2016-11-22T01:52:36.246Z,0
2016-11-22T01:53:52.853Z,0
2016-11-22T01:55:06.963Z,0
2016-11-22T01:56:21.335Z,0
2016-11-22T01:57:35.621Z,0
2016-11-22T01:58:49.718Z,0
2016-11-22T02:00:04.410Z,0
2016-11-22T02:01:18.823Z,0
2016-11-22T02:02:33.300Z,0
2016-11-22T02:03:48.285Z,0
2016-11-22T02:05:02.732Z,0
2016-11-22T02:06:16.777Z,0
2016-11-22T02:07:31.113Z,0
2016-11-22T02:08:45.240Z,0
2016-11-22T02:09:59.610Z,0
2016-11-22T02:11:14.034Z,0
2016-11-22T02:12:28.410Z,0
2016-11-22T02:13:42.800Z,0
2016-11-22T02:14:56.976Z,0
2016-11-22T02:16:11.651Z,0
2016-11-22T02:17:25.684Z,0
2016-11-22T02:18:39.733Z,0
2016-11-22T02:19:54.067Z,0
2016-11-22T02:21:08.395Z,0
2016-11-22T02:22:22.712Z,0
2016-11-22T02:23:36.742Z,0
2016-11-22T02:24:50.857Z,0
2016-11-22T02:26:05.580Z,0
2016-11-22T02:27:19.883Z,0
2016-11-22T02:28:34.178Z,0
2016-11-22T02:29:48.254Z,0
2016-11-22T02:31:02.467Z,0
2016-11-22T02:32:17.112Z,0
2016-11-22T02:33:31.204Z,0
2016-11-22T02:34:46.059Z,0
2016-11-22T02:36:00.131Z,0
2016-11-22T02:37:14.212Z,0
2016-11-22T02:38:28.577Z,0
2016-11-22T02:39:43.002Z,0
2016-11-22T02:40:57.431Z,0
2016-11-22T02:42:11.634Z,0
2016-11-22T02:43:25.714Z,0
2016-11-22T02:44:40.496Z,0
2016-11-22T02:45:54.640Z,0
2016-11-22T02:47:53.224Z,0
2016-11-22T02:49:07.528Z,0
2016-11-22T02:50:21.824Z,0
2016-11-22T02:51:35.973Z,0
2016-11-22T02:52:50.192Z,0
2016-11-22T02:54:04.684Z,0
2016-11-22T02:55:19.274Z,0
2016-11-22T02:56:33.492Z,0
2016-11-22T02:57:48.166Z,0
2016-11-22T02:59:02.391Z,0
2016-11-22T03:00:16.874Z,0
2016-11-22T03:01:31.222Z,0
2016-11-22T03:02:45.937Z,0
2016-11-22T03:04:00.268Z,0
2016-11-22T03:05:14.535Z,0
2016-11-22T03:06:29.024Z,0
2016-11-22T03:07:43.411Z,0
2016-11-22T03:08:57.874Z,0
2016-11-22T03:10:12.806Z,0
2016-11-22T03:11:29.358Z,0
2016-11-22T03:12:43.404Z,0
2016-11-22T03:13:57.728Z,0
2016-11-22T03:15:11.778Z,0
2016-11-22T03:16:26.123Z,0
2016-11-22T03:17:40.966Z,0
2016-11-22T03:18:55.480Z,0
2016-11-22T03:20:09.772Z,0
2016-11-22T03:21:23.846Z,0
2016-11-22T03:22:37.971Z,0
2016-11-22T03:23:52.610Z,0
2016-11-22T03:25:06.647Z,0
2016-11-22T03:26:20.933Z,0
2016-11-22T03:27:35.071Z,0
2016-11-22T03:28:49.391Z,0
2016-11-22T03:30:03.461Z,0
2016-11-22T03:31:17.731Z,0
2016-11-22T03:32:32.104Z,0
2016-11-22T03:33:46.276Z,0
2016-11-22T03:35:00.366Z,0
2016-11-22T03:36:14.718Z,0
2016-11-22T03:37:28.763Z,0
2016-11-22T03:38:43.157Z,0
2016-11-22T03:39:57.792Z,0
2016-11-22T03:41:12.445Z,0
2016-11-22T03:42:26.519Z,0
2016-11-22T03:43:40.633Z,0
2016-11-22T03:44:55.221Z,0
2016-11-22T03:46:09.618Z,0
2016-11-22T03:47:23.903Z,0
2016-11-22T03:48:38.298Z,0
2016-11-22T03:49:52.388Z,0
2016-11-22T03:51:06.689Z,0
2016-11-22T03:52:23.817Z,0
2016-11-22T03:53:37.974Z,0
2016-11-22T03:54:52.680Z,0
2016-11-22T03:56:07.006Z,0
2016-11-22T03:57:21.350Z,0
2016-11-22T03:58:35.513Z,0
2016-11-22T03:59:49.634Z,0
2016-11-22T04:01:04.000Z,0
2016-11-22T04:02:18.703Z,0
2016-11-22T04:03:32.995Z,0
2016-11-22T04:04:47.121Z,0
2016-11-22T04:06:01.216Z,0
2016-11-22T04:07:15.672Z,0
2016-11-22T04:08:29.708Z,0
2016-11-22T04:09:44.415Z,0
2016-11-22T04:10:59.113Z,0
2016-11-22T04:12:13.479Z,0
2016-11-22T04:13:27.792Z,0
2016-11-22T04:14:41.815Z,0
2016-11-22T04:15:56.577Z,0
2016-11-22T04:17:10.701Z,0
2016-11-22T04:18:25.057Z,0
2016-11-22T04:19:39.307Z,0
2016-11-22T04:20:53.634Z,0
2016-11-22T04:22:07.981Z,0
2016-11-22T04:23:22.317Z,0
2016-11-22T04:27:33.943Z,0
2016-11-22T04:28:48.116Z,0
2016-11-22T04:30:04.443Z,0
2016-11-22T04:31:18.735Z,0
2016-11-22T04:32:32.885Z,0
2016-11-22T04:33:47.558Z,0
2016-11-22T04:35:01.597Z,0
2016-11-22T04:36:15.700Z,0
2016-11-22T04:37:30.433Z,0
2016-11-22T04:38:44.857Z,0
2016-11-22T04:39:59.340Z,0
2016-11-22T04:41:13.395Z,0
2016-11-22T04:42:27.634Z,0
2016-11-22T04:43:42.147Z,0
2016-11-22T04:44:56.264Z,0
2016-11-22T04:46:10.614Z,0
2016-11-22T04:47:24.788Z,0
2016-11-22T04:48:39.333Z,0
2016-11-22T04:49:53.699Z,0
2016-11-22T04:51:08.386Z,0
2016-11-22T04:52:22.670Z,0
2016-11-22T04:53:36.928Z,0
2016-11-22T04:54:51.599Z,0
2016-11-22T04:56:06.506Z,0
2016-11-22T04:57:21.390Z,0
2016-11-22T04:58:37.109Z,0
2016-11-22T04:59:52.630Z,0
2016-11-22T05:01:15.682Z,0
2016-11-22T05:02:36.919Z,0
2016-11-22T05:04:02.364Z,0
2016-11-22T05:05:26.675Z,0
2016-11-22T05:06:49.987Z,0
2016-11-22T05:08:16.178Z,0
2016-11-22T05:09:41.077Z,0
2016-11-22T05:10:58.525Z,0
2016-11-22T05:12:37.737Z,0
2016-11-22T05:13:58.073Z,0
2016-11-22T05:15:17.320Z,0
2016-11-22T05:16:37.267Z,0
2016-11-22T05:17:58.445Z,0
2016-11-22T05:19:17.723Z,0
2016-11-22T05:20:36.632Z,0
2016-11-22T05:21:54.188Z,0
2016-11-22T05:23:13.426Z,0
2016-11-22T05:24:33.838Z,0
2016-11-22T05:25:53.441Z,0
2016-11-22T05:27:13.152Z,0
2016-11-22T05:28:35.717Z,0
2016-11-22T05:29:54.163Z,0
2016-11-22T05:31:13.916Z,0
2016-11-22T05:32:34.141Z,0
2016-11-22T05:33:52.557Z,0
2016-11-22T05:35:13.757Z,0
2016-11-22T05:36:32.205Z,0
2016-11-22T05:37:50.926Z,0
2016-11-22T05:39:10.643Z,0
2016-11-22T05:40:27.275Z,0
2016-11-22T05:41:45.516Z,0
2016-11-22T05:43:01.545Z,0
2016-11-22T05:44:18.282Z,0
2016-11-22T05:45:39.494Z,0
2016-11-22T05:48:30.891Z,0
2016-11-22T05:49:48.814Z,0
2016-11-22T05:51:10.222Z,0
2016-11-22T05:52:30.653Z,0
2016-11-22T05:53:48.306Z,0
2016-11-22T05:55:06.105Z,0
2016-11-22T05:56:25.147Z,0
2016-11-22T05:57:41.802Z,0
2016-11-22T05:59:00.991Z,0
2016-11-22T06:00:19.463Z,0
2016-11-22T06:01:38.210Z,0
2016-11-22T06:02:58.787Z,0
2016-11-22T06:04:17.910Z,0
2016-11-22T06:05:37.184Z,0
2016-11-22T06:06:53.630Z,0
2016-11-22T06:08:12.700Z,0
2016-11-22T06:09:28.722Z,0
2016-11-22T06:10:44.414Z,0
2016-11-22T06:11:59.665Z,0
2016-11-22T06:13:16.756Z,0
2016-11-22T06:14:32.664Z,0
2016-11-22T06:15:51.099Z,0
2016-11-22T06:17:07.325Z,0
2016-11-22T06:18:26.551Z,0
2016-11-22T06:19:43.809Z,0
2016-11-22T06:21:15.849Z,0
2016-11-22T06:22:32.351Z,0
2016-11-22T06:23:49.000Z,0
2016-11-22T06:25:06.731Z,0
2016-11-22T06:26:24.689Z,0
2016-11-22T06:27:40.337Z,0
2016-11-22T06:28:55.311Z,0
2016-11-22T06:30:12.799Z,0
2016-11-22T06:31:28.083Z,0
2016-11-22T06:32:43.281Z,0
2016-11-22T06:33:57.921Z,0
2016-11-22T06:35:11.983Z,0
2016-11-22T06:36:26.338Z,0
2016-11-22T06:37:40.530Z,0
2016-11-22T06:38:54.829Z,0
2016-11-22T06:40:09.445Z,0
2016-11-22T06:41:24.411Z,0
2016-11-22T06:42:39.157Z,0
2016-11-22T06:43:54.383Z,0
2016-11-22T06:45:08.912Z,0
2016-11-22T06:46:23.725Z,0
2016-11-22T06:47:38.337Z,0
2016-11-22T06:48:53.315Z,0
2016-11-22T06:50:07.938Z,0
2016-11-22T06:51:22.563Z,0
2016-11-22T06:52:36.886Z,0
2016-11-22T06:53:51.993Z,0
2016-11-22T06:55:06.073Z,0
2016-11-22T06:56:20.447Z,0
2016-11-22T06:57:34.531Z,0
2016-11-22T06:58:49.191Z,0
2016-11-22T07:00:03.579Z,0
2016-11-22T07:01:17.876Z,0
2016-11-22T07:02:32.355Z,0
2016-11-22T07:03:46.402Z,0
2016-11-22T07:05:00.992Z,0
2016-11-22T07:06:15.036Z,0
2016-11-22T07:07:29.191Z,5
2016-11-22T07:08:43.882Z,5
2016-11-22T07:10:00.671Z,5
2016-11-22T07:11:15.125Z,5
2016-11-22T07:12:29.722Z,5
2016-11-22T07:13:43.795Z,5
2016-11-22T07:14:58.041Z,5
2016-11-22T07:16:12.470Z,5
2016-11-22T07:17:27.481Z,5
2016-11-22T07:18:42.028Z,5
2016-11-22T07:19:56.572Z,5
2016-11-22T07:21:10.632Z,10
2016-11-22T07:22:25.253Z,10
2016-11-22T07:23:40.531Z,10
2016-11-22T07:24:55.667Z,10
2016-11-22T07:26:25.028Z,10
2016-11-22T07:27:39.550Z,10
2016-11-22T07:28:54.146Z,10
2016-11-22T07:30:08.672Z,10
2016-11-22T07:31:22.696Z,15
2016-11-22T07:32:37.060Z,15
2016-11-22T07:33:51.735Z,15
2016-11-22T07:35:06.837Z,20
2016-11-22T07:36:21.317Z,20
2016-11-22T07:37:35.339Z,20
2016-11-22T07:38:49.406Z,25
2016-11-22T07:40:03.665Z,25
2016-11-22T07:41:18.279Z,25
2016-11-22T07:42:32.811Z,25
2016-11-22T07:43:47.268Z,25
2016-11-22T07:45:01.603Z,25
2016-11-22T07:46:16.159Z,30
2016-11-22T07:47:30.849Z,30
2016-11-22T07:48:45.629Z,30
2016-11-22T07:50:00.206Z,30
2016-11-22T07:51:14.851Z,35
2016-11-22T07:52:29.365Z,35
2016-11-22T07:53:44.022Z,35
2016-11-22T07:54:58.123Z,35
2016-11-22T07:56:12.343Z,35
2016-11-22T07:57:26.948Z,35
2016-11-22T07:58:41.182Z,40
2016-11-22T07:59:55.595Z,40
2016-11-22T08:02:23.509Z,40
2016-11-22T08:03:38.345Z,40
2016-11-22T08:04:53.018Z,40
2016-11-22T08:06:07.800Z,40
2016-11-22T08:07:22.606Z,40
2016-11-22T08:08:37.242Z,40
2016-11-22T08:09:52.144Z,40
2016-11-22T08:11:06.754Z,40
2016-11-22T08:12:21.575Z,40
2016-11-22T08:13:36.406Z,40
2016-11-22T08:14:51.374Z,40
2016-11-22T08:16:06.272Z,40
2016-11-22T08:17:20.590Z,40
2016-11-22T08:18:35.513Z,45
2016-11-22T08:19:50.084Z,45
2016-11-22T08:21:19.138Z,45
2016-11-22T08:22:33.535Z,50
2016-11-22T08:23:47.935Z,50
2016-11-22T08:25:03.323Z,50
2016-11-22T08:26:17.830Z,50
2016-11-22T08:27:32.795Z,55
2016-11-22T08:28:50.024Z,55
2016-11-22T08:30:04.324Z,55
2016-11-22T08:31:19.065Z,55
2016-11-22T08:32:48.280Z,60
2016-11-22T08:34:03.623Z,60
2016-11-22T08:35:18.342Z,60
2016-11-22T08:36:33.652Z,60
2016-11-22T08:37:49.010Z,60
2016-11-22T08:39:03.351Z,65
2016-11-22T08:40:18.085Z,65
2016-11-22T08:45:43.693Z,65
2016-11-22T08:46:59.583Z,65
2016-11-22T08:48:14.489Z,70
2016-11-22T08:49:29.177Z,70
2016-11-22T08:50:43.889Z,70
2016-11-22T08:51:59.113Z,70
2016-11-22T08:53:14.470Z,70
2016-11-22T08:54:29.458Z,70
2016-11-22T08:55:44.498Z,70
2016-11-22T08:56:59.191Z,70
2016-11-22T08:58:13.587Z,70
2016-11-22T08:59:28.424Z,70
2016-11-22T09:00:43.457Z,70
2016-11-22T09:01:57.860Z,70
2016-11-22T09:03:12.422Z,70
2016-11-22T09:04:26.902Z,70
2016-11-22T09:05:41.645Z,70
2016-11-22T09:06:56.454Z,70
2016-11-22T09:08:10.849Z,70
2016-11-22T09:09:25.191Z,70
2016-11-22T09:10:40.286Z,65
2016-11-22T09:19:17.312Z,60
2016-11-22T09:20:51.325Z,60
2016-11-22T09:22:25.011Z,60
2016-11-22T09:23:59.752Z,60
2016-11-22T09:25:34.407Z,60
2016-11-22T09:27:08.330Z,60
2016-11-22T09:28:41.913Z,65
2016-11-22T09:30:15.851Z,65
2016-11-22T09:31:50.250Z,65
2016-11-22T09:33:23.822Z,70
2016-11-22T09:34:58.013Z,70
2016-11-22T09:36:32.089Z,70
2016-11-22T09:38:25.267Z,70
2016-11-22T09:39:58.856Z,70
2016-11-22T09:41:32.923Z,65
2016-11-22T09:43:07.201Z,65
2016-11-22T09:44:41.410Z,60
2016-11-22T09:46:15.002Z,65
2016-11-22T09:48:16.909Z,60
2016-11-22T09:49:50.870Z,55
2016-11-22T09:51:24.626Z,55
2016-11-22T09:52:58.003Z,55
2016-11-22T09:54:32.587Z,55
2016-11-22T09:56:06.164Z,55
2016-11-22T09:57:40.188Z,55
2016-11-22T09:59:13.704Z,55
2016-11-22T10:00:48.243Z,55
2016-11-22T10:02:22.752Z,55
2016-11-22T10:04:19.631Z,55
2016-11-22T10:05:53.038Z,55
2016-11-22T10:07:26.976Z,55
2016-11-22T10:09:00.830Z,55
2016-11-22T10:10:35.123Z,60
2016-11-22T10:12:08.882Z,60
2016-11-22T10:13:42.921Z,60
2016-11-22T10:15:16.177Z,55
2016-11-22T10:16:50.772Z,60
2016-11-22T10:21:29.736Z,60
2016-11-22T10:23:22.350Z,60
2016-11-22T10:24:57.024Z,60
2016-11-22T10:26:30.652Z,60
2016-11-22T10:28:05.233Z,60
2016-11-22T10:29:39.088Z,65
2016-11-22T10:31:12.820Z,65
2016-11-22T10:32:46.286Z,65
2016-11-22T10:34:20.381Z,65
2016-11-22T10:35:53.731Z,60
2016-11-22T10:37:27.213Z,60
2016-11-22T10:39:01.237Z,55
2016-11-22T10:40:36.641Z,55
2016-11-22T10:42:06.125Z,55
2016-11-22T10:43:39.825Z,55
2016-11-22T10:48:42.607Z,45
2016-11-22T10:50:16.266Z,45
2016-11-22T10:51:51.039Z,45
2016-11-22T10:53:25.301Z,50
2016-11-22T10:54:59.877Z,50
2016-11-22T10:56:33.653Z,55
2016-11-22T10:58:07.606Z,60
2016-11-22T10:59:41.272Z,65
2016-11-22T11:01:15.544Z,70
2016-11-22T11:02:48.801Z,65
2016-11-22T11:04:22.339Z,70
2016-11-22T11:05:55.606Z,75
2016-11-22T11:07:48.392Z,70
2016-11-22T11:09:22.957Z,65
2016-11-22T11:10:56.915Z,75
2016-11-22T11:12:31.034Z,75
2016-11-22T11:17:40.063Z,80
2016-11-22T11:19:14.045Z,80
2016-11-22T11:20:47.707Z,80
2016-11-22T11:22:21.432Z,80
2016-11-22T11:23:55.078Z,80
2016-11-22T11:25:29.311Z,80
2016-11-22T11:27:03.008Z,85
2016-11-22T11:28:36.981Z,85
2016-11-22T11:30:10.801Z,90
2016-11-22T11:31:45.098Z,95
2016-11-22T11:33:18.968Z,100
2016-11-22T11:35:11.672Z,100
2016-11-22T11:36:45.520Z,100
2016-11-22T11:38:14.182Z,105
2016-11-22T11:39:29.522Z,110
2016-11-22T11:41:03.063Z,115
2016-11-22T11:42:56.309Z,120
2016-11-22T11:44:31.059Z,125
2016-11-22T11:46:05.664Z,125
2016-11-22T11:47:41.602Z,120
2016-11-22T11:49:15.385Z,115
2016-11-22T11:50:49.374Z,110
2016-11-22T11:52:23.175Z,105
2016-11-22T11:53:58.448Z,100
2016-11-22T11:55:51.371Z,90
2016-11-22T11:57:25.221Z,90
2016-11-22T11:58:58.853Z,90
2016-11-22T12:00:33.635Z,95
2016-11-22T12:02:07.172Z,95
2016-11-22T12:03:41.374Z,100
2016-11-22T12:05:17.273Z,100
2016-11-22T12:09:48.386Z,105
2016-11-22T12:11:22.274Z,110
2016-11-22T12:12:51.096Z,110
2016-11-22T12:14:05.529Z,110
2016-11-22T12:15:41.128Z,110
2016-11-22T12:17:14.811Z,110
2016-11-22T12:18:48.631Z,110
2016-11-22T12:20:21.988Z,105
2016-11-22T12:22:15.785Z,105
2016-11-22T12:25:00.496Z,110
2016-11-22T12:26:29.193Z,110
2016-11-22T12:28:03.392Z,110
2016-11-22T12:29:36.956Z,115
2016-11-22T12:31:10.881Z,115
2016-11-22T12:32:44.610Z,110
2016-11-22T12:34:18.452Z,110
2016-11-22T12:35:52.524Z,105
2016-11-22T12:37:26.581Z,105
2016-11-22T12:39:00.644Z,100
2016-11-22T12:40:54.581Z,100
2016-11-22T12:42:29.410Z,95
2016-11-22T12:43:58.387Z,100
2016-11-22T12:45:12.851Z,95
2016-11-22T12:47:06.068Z,100
2016-11-22T12:48:39.948Z,105
2016-11-22T12:50:13.757Z,110
2016-11-22T12:51:47.362Z,115
2016-11-22T12:53:21.088Z,115
2016-11-22T12:54:54.495Z,115
2016-11-22T12:56:28.561Z,115
2016-11-22T12:58:02.213Z,115
2016-11-22T12:59:36.175Z,115
2016-11-22T13:01:10.000Z,115
2016-11-22T13:02:39.675Z,110
2016-11-22T13:04:13.108Z,110
2016-11-22T13:05:47.281Z,110
2016-11-22T13:07:21.021Z,110
2016-11-22T13:08:54.428Z,105
2016-11-22T13:10:28.993Z,105
2016-11-22T13:12:02.954Z,105
2016-11-22T13:13:36.299Z,105
2016-11-22T13:15:09.868Z,110
2016-11-22T13:16:43.775Z,115
2016-11-22T13:18:36.998Z,110
2016-11-22T13:20:10.674Z,105
2016-11-22T13:21:39.529Z,110
2016-11-22T13:22:54.606Z,110
2016-11-22T13:24:28.267Z,110
2016-11-22T13:26:23.380Z,110
2016-11-22T13:27:56.773Z,115
2016-11-22T13:29:30.845Z,110
2016-11-22T13:31:05.261Z,110
2016-11-22T13:32:39.049Z,105
2016-11-22T13:34:40.268Z,105
2016-11-22T13:36:13.755Z,105
2016-11-22T13:37:47.923Z,100
2016-11-22T13:39:21.476Z,95
2016-11-22T13:40:55.012Z,85
2016-11-22T13:42:28.470Z,85
2016-11-22T13:44:02.984Z,80
2016-11-22T13:45:37.470Z,80
2016-11-22T13:47:12.239Z,80
2016-11-22T13:48:45.568Z,80
2016-11-22T13:50:39.410Z,75
2016-11-22T13:52:14.777Z,75
2016-11-22T13:53:48.243Z,70
2016-11-22T13:55:22.655Z,75
2016-11-22T13:56:57.621Z,75
2016-11-22T13:58:31.534Z,75
2016-11-22T14:00:05.079Z,75
2016-11-22T14:01:39.250Z,80
2016-11-22T14:06:15.089Z,70
2016-11-22T14:07:47.125Z,70
2016-11-22T14:09:21.027Z,65
2016-11-22T14:10:55.009Z,60
2016-11-22T14:12:28.591Z,60
2016-11-22T14:13:57.105Z,60
2016-11-22T14:15:26.102Z,60
2016-11-22T14:17:00.621Z,65
2016-11-22T14:18:34.954Z,65
2016-11-22T14:20:08.576Z,60
2016-11-22T14:21:42.721Z,60
2016-11-22T14:23:16.835Z,55
2016-11-22T14:24:50.893Z,55
2016-11-22T14:26:24.779Z,50
2016-11-22T14:27:58.782Z,50
2016-11-22T14:29:33.665Z,45
2016-11-22T14:31:07.457Z,45
2016-11-22T14:33:01.674Z,40
2016-11-22T14:34:35.913Z,40
2016-11-22T14:36:12.101Z,35
2016-11-22T14:37:46.778Z,35
2016-11-22T14:39:20.600Z,35
2016-11-22T14:40:54.851Z,35
2016-11-22T14:42:28.806Z,30
2016-11-22T14:44:22.826Z,30
2016-11-22T14:45:57.239Z,25
2016-11-22T14:47:31.808Z,25
2016-11-22T14:49:05.533Z,20
2016-11-22T14:50:39.657Z,20
2016-11-22T14:52:13.882Z,20
2016-11-22T14:53:48.011Z,15
2016-11-22T14:55:22.849Z,15
2016-11-22T14:57:25.028Z,15
2016-11-22T14:58:59.223Z,15
2016-11-22T15:00:33.810Z,15
2016-11-22T15:02:27.696Z,15
2016-11-22T15:04:01.532Z,10
2016-11-22T15:05:36.125Z,10
2016-11-22T15:07:11.860Z,10
2016-11-22T15:08:45.820Z,10
2016-11-22T15:10:19.564Z,10
2016-11-22T15:11:53.470Z,10
2016-11-22T15:13:27.510Z,10
2016-11-22T15:15:01.759Z,10
2016-11-22T15:17:02.776Z,5
2016-11-22T15:18:37.126Z,5
2016-11-22T15:21:43.214Z,5
2016-11-22T15:23:18.265Z,5
2016-11-22T15:24:52.071Z,5
2016-11-22T15:26:22.299Z,5
2016-11-22T15:27:56.338Z,0
2016-11-22T15:29:31.108Z,0
2016-11-22T15:31:24.121Z,0
2016-11-22T15:33:00.702Z,0
2016-11-22T15:34:34.630Z,0
2016-11-22T15:36:08.652Z,0
2016-11-22T15:38:07.327Z,0
2016-11-22T15:39:46.839Z,0
2016-11-22T15:41:20.665Z,0
2016-11-22T15:42:54.319Z,0
2016-11-22T15:44:28.829Z,0
2016-11-22T15:46:03.152Z,0
2016-11-22T15:47:32.948Z,0
2016-11-22T15:49:06.723Z,0
2016-11-22T15:50:40.479Z,0
2016-11-22T15:52:14.677Z,0
2016-11-22T15:54:08.290Z,0
2016-11-22T15:55:41.672Z,0
2016-11-22T15:57:15.221Z,0
2016-11-22T15:58:49.542Z,0
2016-11-22T16:00:23.743Z,0
2016-11-22T16:01:58.072Z,0
2016-11-22T16:03:31.821Z,0
2016-11-22T16:05:05.720Z,0
2016-11-22T16:06:40.276Z,0
2016-11-22T16:08:14.305Z,0
2016-11-22T16:09:47.746Z,0
2016-11-22T16:11:22.023Z,0
2016-11-22T16:13:15.289Z,0
2016-11-22T16:14:50.581Z,0
2016-11-22T16:16:24.623Z,0
2016-11-22T16:17:59.217Z,0
2016-11-22T16:19:32.683Z,0
2016-11-22T16:21:06.454Z,0
2016-11-22T16:22:40.570Z,0
2016-11-22T16:24:15.304Z,0
2016-11-22T16:25:50.208Z,0
2016-11-22T16:27:43.297Z,0
2016-11-22T16:29:17.288Z,0
2016-11-22T16:30:59.793Z,0
2016-11-22T16:32:55.287Z,0
2016-11-22T16:34:29.743Z,0
2016-11-22T16:36:18.934Z,0
2016-11-22T16:37:53.064Z,0
2016-11-22T16:39:27.066Z,0
2016-11-22T16:42:11.205Z,0
2016-11-22T16:44:14.333Z,0
2016-11-22T16:52:07.774Z,0
2016-11-22T16:56:38.344Z,0
2016-11-22T16:58:13.562Z,0
2016-11-22T16:59:47.296Z,0
2016-11-22T17:01:17.626Z,0
2016-11-22T17:02:52.112Z,0
2016-11-22T17:05:03.942Z,0
2016-11-22T17:06:37.599Z,0
2016-11-22T17:08:11.520Z,0
2016-11-22T17:09:45.040Z,0
2016-11-22T17:11:18.521Z,0
2016-11-22T17:12:48.181Z,0
2016-11-22T17:14:23.770Z,0
2016-11-22T17:16:17.441Z,0
2016-11-22T17:17:52.056Z,0
2016-11-22T17:19:25.624Z,0
2016-11-22T17:21:00.133Z,0
2016-11-22T17:22:34.702Z,0
2016-11-22T17:24:09.394Z,0
2016-11-22T17:26:04.882Z,0
2016-11-22T17:27:19.240Z,0
2016-11-22T17:29:27.148Z,0
2016-11-22T17:31:19.997Z,0
2016-11-22T17:32:53.978Z,0
2016-11-22T17:34:28.571Z,0
2016-11-22T17:36:02.329Z,0
2016-11-22T17:37:36.389Z,0
2016-11-22T17:39:10.844Z,0
2016-11-22T17:40:45.066Z,0
2016-11-22T17:42:19.050Z,0
2016-11-22T17:43:51.318Z,0
2016-11-22T17:45:24.704Z,0
2016-11-22T17:46:59.381Z,0
2016-11-22T17:48:32.870Z,0
2016-11-22T17:50:34.452Z,0
2016-11-22T17:52:08.595Z,0
2016-11-22T17:53:44.293Z,0
2016-11-22T17:55:16.563Z,0
2016-11-22T17:57:10.042Z,0
2016-11-22T17:58:44.696Z,0
2016-11-22T18:00:18.273Z,0
2016-11-22T18:01:52.310Z,0
2016-11-22T18:03:26.879Z,0
2016-11-22T18:05:00.759Z,0
2016-11-22T18:06:30.240Z,0
2016-11-22T18:08:04.563Z,0
2016-11-22T18:11:43.398Z,0
2016-11-22T18:13:12.742Z,0
2016-11-22T18:14:47.308Z,0
2016-11-22T18:16:23.716Z,0
2016-11-22T18:17:58.631Z,0
2016-11-22T18:19:32.668Z,0
2016-11-22T18:21:27.068Z,0
2016-11-22T18:23:10.695Z,0
2016-11-22T18:25:03.901Z,0
2016-11-22T18:26:37.414Z,0
2016-11-22T18:28:12.789Z,0
2016-11-22T18:29:48.273Z,0
2016-11-22T18:31:22.376Z,0
2016-11-22T18:32:57.059Z,0
2016-11-22T18:34:59.885Z,0
2016-11-22T18:36:34.593Z,0
2016-11-22T18:38:09.316Z,0
2016-11-22T18:39:43.449Z,0
2016-11-22T18:41:17.405Z,0
2016-11-22T18:42:46.834Z,0
2016-11-22T18:44:20.821Z,0
2016-11-22T18:45:55.479Z,0
2016-11-22T18:47:29.607Z,0
2016-11-22T18:48:58.600Z,0
2016-11-22T18:50:32.848Z,0
2016-11-22T18:52:05.573Z,0
2016-11-22T18:53:40.251Z,0
2016-11-22T18:55:14.515Z,0
2016-11-22T18:56:44.208Z,0
2016-11-22T18:58:18.366Z,0
2016-11-22T18:59:47.384Z,0
2016-11-22T19:01:21.921Z,0
2016-11-22T19:02:57.221Z,0
2016-11-22T19:04:31.786Z,0
2016-11-22T19:06:01.744Z,0
2016-11-22T19:07:36.561Z,0
2016-11-22T19:09:05.938Z,0
2016-11-22T19:10:40.688Z,0
2016-11-22T19:12:15.781Z,0
2016-11-22T19:13:50.133Z,0
2016-11-22T19:15:25.889Z,0
2016-11-22T19:17:00.368Z,0
2016-11-22T19:18:41.868Z,0
2016-11-22T19:20:36.449Z,0
2016-11-22T19:22:11.105Z,0
2016-11-22T19:23:47.512Z,0
2016-11-22T19:25:21.512Z,0
2016-11-22T19:26:55.934Z,0
2016-11-22T19:28:30.434Z,0
2016-11-22T19:30:24.811Z,0
2016-11-22T19:32:00.004Z,0
2016-11-22T19:34:01.370Z,0
2016-11-22T19:35:36.274Z,0
2016-11-22T19:37:12.162Z,0
2016-11-22T19:38:46.492Z,0
2016-11-22T19:40:21.773Z,0
2016-11-22T19:41:55.913Z,0
2016-11-22T19:43:25.275Z,0
2016-11-22T19:46:34.892Z,0
2016-11-22T19:48:08.613Z,0
2016-11-22T19:49:43.020Z,0
2016-11-22T19:51:16.735Z,0
2016-11-22T19:53:09.734Z,0
2016-11-22T19:54:42.331Z,0
2016-11-22T19:56:16.563Z,0
2016-11-22T19:57:50.610Z,0
2016-11-22T19:59:24.355Z,0
2016-11-22T20:00:39.487Z,0
2016-11-22T20:02:35.558Z,0
2016-11-22T20:04:09.895Z,0
2016-11-22T20:05:43.273Z,0
2016-11-22T20:07:17.339Z,0
2016-11-22T20:08:51.394Z,0
2016-11-22T20:10:26.301Z,0
2016-11-22T20:12:21.051Z,0
2016-11-22T20:13:58.167Z,0
2016-11-22T20:15:32.925Z,0
2016-11-22T20:17:07.191Z,0
2016-11-22T20:18:40.380Z,0
2016-11-22T20:20:14.465Z,0
2016-11-22T20:21:49.960Z,0
2016-11-22T20:23:23.315Z,0
2016-11-22T20:24:57.123Z,0
2016-11-22T20:26:30.839Z,0
2016-11-22T20:28:25.216Z,0
2016-11-22T20:29:59.544Z,0
2016-11-22T20:31:33.438Z,0
2016-11-22T20:33:07.244Z,0
2016-11-22T20:34:47.858Z,0
2016-11-22T20:36:21.386Z,0
2016-11-22T20:38:13.811Z,0
2016-11-22T20:39:49.102Z,0
2016-11-22T20:41:23.010Z,0
2016-11-22T20:42:56.838Z,0
2016-11-22T20:44:30.719Z,0
2016-11-22T20:46:05.044Z,0
2016-11-22T20:47:40.590Z,0
2016-11-22T20:49:15.237Z,0
2016-11-22T20:50:49.202Z,0
2016-11-22T20:52:42.848Z,0
2016-11-22T20:54:17.428Z,0
2016-11-22T20:55:52.207Z,0
2016-11-22T20:57:26.636Z,0
2016-11-22T20:58:55.661Z,0
2016-11-22T21:00:29.963Z,0
2016-11-22T21:02:03.979Z,0
2016-11-22T21:03:37.631Z,0
2016-11-22T21:05:11.516Z,0
2016-11-22T21:06:45.464Z,0
2016-11-22T21:09:53.820Z,0
2016-11-22T21:11:28.062Z,0
2016-11-22T21:13:01.674Z,0
2016-11-22T21:14:55.516Z,0
2016-11-22T21:16:32.011Z,0
2016-11-22T21:18:35.462Z,0
2016-11-22T21:20:10.476Z,0
2016-11-22T21:21:45.109Z,0
2016-11-22T21:23:20.236Z,0
2016-11-22T21:24:53.793Z,0
2016-11-22T21:26:28.257Z,0
2016-11-22T21:28:02.349Z,0
2016-11-22T21:29:36.052Z,0
2016-11-22T21:31:11.173Z,0
2016-11-22T21:32:46.237Z,0
2016-11-22T21:34:20.272Z,0
2016-11-22T21:36:09.375Z,0
2016-11-22T21:37:25.015Z,0
2016-11-22T21:38:59.300Z,0
2016-11-22T21:41:01.858Z,0
2016-11-22T21:42:57.136Z,0
2016-11-22T21:44:32.150Z,0
2016-11-22T21:46:33.021Z,0
2016-11-22T21:48:02.470Z,0